Time;durP1;ratioP1;P1;durP2;ratioP2;P2;SDS_P1;SDS_P2;PMS_P1;PMS_P2;Temp;Humidity;BMP_temperature;BMP_pressure;BME280_temperature;BME280_humidity;BME280_pressure;Samples;Min_cycle;Max_cycle;Signal;HPM_P1;HPM_P2
2021/09/03 00:02:02;;;;;;;0.00;0.00;;;11.50;99.90;;;;;;6216557;23;20017;-93
2021/09/03 00:04:37;;;;;;;0.13;0.10;;;11.50;99.90;;;;;;6217036;23;20325;-92
2021/09/03 00:07:04;;;;;;;0.00;0.00;;;11.60;99.90;;;;;;6241103;23;20088;-93
2021/09/03 00:09:34;;;;;;;0.00;0.00;;;11.50;99.90;;;;;;6242243;23;20027;-93
2021/09/03 00:12:17;;;;;;;0.00;0.00;;;11.40;99.90;;;;;;6197203;23;20015;-93
2021/09/03 00:15:05;;;;;;;0.10;0.10;;;11.40;99.90;;;;;;6240979;23;20021;-93
2021/09/03 00:17:54;;;;;;;;;;;;;;;;;;;;;
2021/09/03 00:20:47;;;;;;;0.00;0.00;;;11.40;99.90;;;;;;6251996;23;20080;-92
2021/09/03 00:23:15;;;;;;;0.00;0.00;;;11.30;99.90;;;;;;6216379;23;20425;-92
2021/09/03 00:25:42;;;;;;;0.03;0.03;;;11.30;99.90;;;;;;6240590;23;20009;-92
2021/09/03 00:28:21;;;;;;;0.00;0.00;;;11.30;99.90;;;;;;6241327;23;20017;-94
2021/09/03 00:30:52;;;;;;;0.00;0.00;;;11.30;99.90;;;;;;6241350;23;20019;-93
2021/09/03 00:33:42;;;;;;;0.00;0.00;;;11.30;99.90;;;;;;6266050;23;20013;-94
2021/09/03 00:36:23;;;;;;;0.05;0.05;;;11.20;99.90;;;;;;6216890;23;20048;-93
2021/09/03 00:39:01;;;;;;;0.17;0.17;;;11.10;99.90;;;;;;6241428;23;20020;-93
2021/09/03 00:41:33;;;;;;;0.10;0.10;;;11.20;99.90;;;;;;6242571;23;20024;-93
2021/09/03 00:46:53;;;;;;;0.00;0.00;;;11.10;99.90;;;;;;6266318;22;20033;-94
2021/09/03 00:49:36;;;;;;;;;;;;;;;;;;;;;
2021/09/03 00:52:19;;;;;;;0.10;0.10;;;11.10;99.90;;;;;;6243818;23;20360;-94
2021/09/03 00:54:53;;;;;;;0.00;0.00;;;11.40;99.90;;;;;;6241104;23;20032;-94
2021/09/03 00:57:31;;;;;;;0.05;0.05;;;11.10;99.90;;;;;;6240424;23;20512;-94
2021/09/03 01:00:12;;;;;;;0.00;0.00;;;11.00;99.90;;;;;;6241121;23;20016;-93
2021/09/03 01:02:42;;;;;;;0.00;0.00;;;11.00;99.90;;;;;;6239594;23;20020;-94
2021/09/03 01:05:11;;;;;;;0.00;0.00;;;11.00;99.90;;;;;;6240868;23;20020;-94
2021/09/03 01:07:53;;;;;;;0.00;0.00;;;11.00;99.90;;;;;;6239035;23;20078;-94
2021/09/03 01:10:23;;;;;;;0.20;0.20;;;11.00;99.90;;;;;;6194353;23;20023;-93
2021/09/03 01:12:55;;;;;;;0.00;0.00;;;11.00;99.90;;;;;;6235760;23;20059;-94
2021/09/03 01:15:27;;;;;;;0.10;0.10;;;11.00;99.90;;;;;;6186100;23;20039;-94
2021/09/03 01:18:35;;;;;;;;;;;;;;;;;;;;;
2021/09/03 01:21:27;;;;;;;;;;;;;;;;;;;;;
2021/09/03 01:24:02;;;;;;;0.00;0.00;;;11.00;99.90;;;;;;6188893;23;20023;-94
2021/09/03 01:26:36;;;;;;;0.08;0.08;;;10.90;99.90;;;;;;6186512;23;20029;-93
2021/09/03 01:29:05;;;;;;;0.00;0.00;;;10.90;99.90;;;;;;6162564;23;20017;-93
2021/09/03 01:31:32;;;;;;;0.00;0.00;;;10.80;99.90;;;;;;6160244;23;20053;-93
2021/09/03 01:34:04;;;;;;;0.00;0.00;;;10.90;99.90;;;;;;6159764;23;20047;-94
2021/09/03 01:36:46;;;;;;;0.00;0.00;;;10.80;99.90;;;;;;6185465;23;20013;-93
2021/09/03 01:39:31;;;;;;;0.00;0.00;;;10.80;99.90;;;;;;6141357;23;20024;-93
2021/09/03 01:41:58;;;;;;;0.10;0.10;;;11.10;99.90;;;;;;6187798;23;20017;-93
2021/09/03 01:44:25;;;;;;;0.00;0.00;;;10.80;99.90;;;;;;6184014;23;20022;-93
2021/09/03 01:46:57;;;;;;;0.00;0.00;;;10.80;99.90;;;;;;6184876;23;20009;-93
2021/09/03 01:49:35;;;;;;;0.05;0.05;;;11.10;99.90;;;;;;6186224;23;20461;-94
2021/09/03 01:52:21;;;;;;;0.10;0.10;;;10.70;99.90;;;;;;6184415;23;20017;-94
2021/09/03 01:55:03;;;;;;;;;;;;;;;;;;;;;
2021/09/03 01:57:51;;;;;;;0.10;0.10;;;10.80;99.90;;;;;;6209519;23;20041;-94
2021/09/03 02:04:18;;;;;;;0.10;0.10;;;10.70;99.90;;;;;;6198212;23;20021;-94
2021/09/03 02:06:59;;;;;;;0.00;0.00;;;10.90;99.90;;;;;;6185675;23;20334;-93
2021/09/03 02:09:59;;;;;;;;;;;;;;;;;;;;;
2021/09/03 02:12:50;;;;;;;0.10;0.10;;;10.80;99.90;;;;;;6172685;23;20046;-94
2021/09/03 02:15:34;;;;;;;0.10;0.10;;;10.70;99.90;;;;;;6189163;23;20104;-94
2021/09/03 02:18:27;;;;;;;0.10;0.10;;;10.60;99.90;;;;;;6162416;23;20024;-94
2021/09/03 02:32:09;;;;;;;0.00;0.00;;;10.50;99.90;;;;;;6174113;23;20029;-94
2021/09/03 02:35:03;;;;;;;0.00;0.00;;;10.50;99.90;;;;;;6150439;23;20018;-94
2021/09/03 02:37:47;;;;;;;0.00;0.00;;;10.50;99.90;;;;;;6152432;23;20104;-95
2021/09/03 02:56:10;;;;;;;0.10;0.10;;;10.30;99.90;;;;;;6120537;23;20112;-94
2021/09/03 02:59:00;;;;;;;;;;;;;;;;;;;;;
2021/09/03 03:02:45;;;;;;;0.00;0.00;;;10.20;99.90;;;;;;6151581;23;20022;-95
2021/09/03 03:09:16;;;;;;;0.00;0.00;;;10.20;99.90;;;;;;6129153;23;20026;-95
2021/09/03 03:11:54;;;;;;;0.00;0.00;;;9.90;99.90;;;;;;6152677;23;20017;-94
2021/09/03 03:15:05;;;;;;;;;;;;;;;;;;;;;
2021/09/03 03:18:22;;;;;;;0.03;0.03;;;10.20;99.90;;;;;;6264375;22;20020;-93
2021/09/03 03:21:14;;;;;;;0.10;0.10;;;9.90;99.90;;;;;;6196818;23;20021;-94
2021/09/03 03:23:58;;;;;;;0.00;0.00;;;10.10;99.90;;;;;;6239577;23;20017;-93
2021/09/03 03:26:25;;;;;;;0.10;0.10;;;10.00;99.90;;;;;;6215301;23;20012;-94
2021/09/03 03:28:52;;;;;;;0.10;0.10;;;10.10;99.90;;;;;;6238092;23;20023;-93
2021/09/03 03:31:31;;;;;;;;;;;;;;;;;;;;;
2021/09/03 03:34:00;;;;;;;0.10;0.10;;;10.00;99.90;;;;;;6239242;23;20009;-93
2021/09/03 03:36:30;;;;;;;0.10;0.10;;;10.00;99.90;;;;;;6212550;23;20023;-94
2021/09/03 03:41:46;;;;;;;0.10;0.10;;;10.00;99.90;;;;;;6262184;23;20333;-94
2021/09/03 03:44:31;;;;;;;0.10;0.10;;;10.00;99.90;;;;;;6237578;23;20019;-93
2021/09/03 03:47:09;;;;;;;0.03;0.03;;;10.10;99.90;;;;;;6237016;23;20013;-94
2021/09/03 03:50:36;;;;;;;;;;;;;;;;;;;;;
2021/09/03 03:53:24;;;;;;;0.10;0.10;;;9.80;99.90;;;;;;6235168;23;20021;-94
2021/09/03 03:56:17;;;;;;;0.00;0.00;;;9.80;99.90;;;;;;6212268;23;20012;-94
2021/09/03 03:59:16;;;;;;;0.20;0.20;;;9.80;99.90;;;;;;6234809;23;20023;-95
2021/09/03 04:02:05;;;;;;;0.15;0.10;;;9.80;99.90;;;;;;6228493;23;20017;-94
2021/09/03 04:04:43;;;;;;;0.10;0.10;;;9.80;99.90;;;;;;6238153;23;20021;-93
2021/09/03 04:07:33;;;;;;;0.00;0.00;;;9.80;99.90;;;;;;6214241;23;20067;-93
2021/09/03 04:10:34;;;;;;;0.10;0.10;;;9.80;99.90;;;;;;6242847;23;20573;-93
2021/09/03 04:13:25;;;;;;;0.00;0.00;;;9.70;99.90;;;;;;6217752;23;20055;-93
2021/09/03 04:15:52;;;;;;;0.10;0.10;;;9.80;99.90;;;;;;6218347;22;20011;-94
2021/09/03 04:18:46;;;;;;;0.00;0.00;;;9.40;99.90;;;;;;6241598;22;19997;-94
2021/09/03 04:41:08;;;;;;;0.10;0.10;;;9.70;99.90;;;;;;6150978;23;20021;-93
2021/09/03 04:44:24;;;;;;;;;;;;;;;;;;;;;
2021/09/03 04:51:17;;;;;;;0.10;0.10;;;9.80;99.90;;;;;;6204765;23;20194;-93
2021/09/03 04:55:14;;;;;;;;;;;;;;;;;;;;;
2021/09/03 04:58:25;;;;;;;0.10;0.10;;;10.00;99.90;;;;;;6174501;23;20033;-93
2021/09/03 05:01:17;;;;;;;0.38;0.10;;;9.60;99.90;;;;;;6194286;23;20044;-94
2021/09/03 05:03:57;;;;;;;0.20;0.20;;;9.80;99.90;;;;;;6211481;23;20260;-95
2021/09/03 05:06:32;;;;;;;0.10;0.10;;;9.80;99.90;;;;;;6239820;23;20025;-94
2021/09/03 05:09:23;;;;;;;;;;;;;;;;;;;;;
2021/09/03 05:12:18;;;;;;;0.10;0.10;;;10.00;99.90;;;;;;6266718;23;20021;-96
2021/09/03 05:14:53;;;;;;;0.10;0.10;;;10.20;99.90;;;;;;6216363;23;20022;-94
2021/09/03 05:17:21;;;;;;;0.10;0.10;;;10.10;99.90;;;;;;6240347;23;20040;-93
2021/09/03 05:20:01;;;;;;;;;;;;;;;;;;;;;
2021/09/03 05:22:41;;;;;;;0.10;0.10;;;10.30;99.90;;;;;;6262770;23;20020;-93
2021/09/03 05:25:34;;;;;;;0.10;0.10;;;10.40;99.90;;;;;;6237256;23;20009;-94
2021/09/03 05:28:04;;;;;;;0.10;0.10;;;10.40;99.90;;;;;;6263280;22;20397;-93
2021/09/03 05:30:31;;;;;;;0.10;0.10;;;10.50;99.90;;;;;;6237167;23;20021;-92
2021/09/03 05:32:58;;;;;;;0.20;0.17;;;10.60;99.90;;;;;;6236922;23;20369;-93
2021/09/03 05:35:27;;;;;;;0.10;0.10;;;10.60;99.90;;;;;;6236136;23;20091;-93
2021/09/03 05:37:55;;;;;;;0.00;0.00;;;10.40;99.90;;;;;;6238536;23;20091;-92
2021/09/03 05:40:23;;;;;;;0.03;0.03;;;10.80;99.90;;;;;;6237946;23;20097;-92
2021/09/03 05:42:55;;;;;;;0.10;0.10;;;10.90;99.90;;;;;;6237616;23;20016;-91
2021/09/03 05:45:22;;;;;;;0.00;0.00;;;11.00;99.90;;;;;;6238311;23;20079;-91
2021/09/03 05:47:49;;;;;;;0.10;0.10;;;11.10;99.90;;;;;;6239869;23;20012;-93
2021/09/03 05:50:34;;;;;;;0.90;0.25;;;11.10;99.90;;;;;;6239474;23;20353;-95
2021/09/03 05:53:02;;;;;;;0.00;0.00;;;11.20;99.90;;;;;;6239209;23;20338;-92
2021/09/03 05:55:29;;;;;;;0.00;0.00;;;11.30;99.90;;;;;;6236981;23;20103;-94
2021/09/03 05:58:01;;;;;;;0.00;0.00;;;11.40;99.90;;;;;;6238589;23;20017;-93
2021/09/03 06:00:31;;;;;;;0.10;0.10;;;11.50;99.90;;;;;;6239739;23;20023;-92
2021/09/03 06:03:08;;;;;;;0.00;0.00;;;11.60;99.90;;;;;;6213193;23;20095;-93
2021/09/03 06:06:24;;;;;;;0.22;0.20;;;11.60;99.90;;;;;;6239429;23;20390;-94
2021/09/03 06:08:52;;;;;;;0.00;0.00;;;11.80;99.90;;;;;;6236325;23;20016;-89
2021/09/03 06:11:29;;;;;;;0.00;0.00;;;11.90;99.90;;;;;;6236236;23;20048;-89
2021/09/03 06:14:04;;;;;;;0.00;0.00;;;11.90;99.90;;;;;;6236408;23;20017;-94
2021/09/03 06:16:31;;;;;;;0.10;0.10;;;12.00;99.90;;;;;;6210242;23;20024;-88
2021/09/03 06:18:58;;;;;;;0.10;0.10;;;12.10;99.90;;;;;;6211627;23;20243;-89
2021/09/03 06:21:29;;;;;;;0.10;0.10;;;12.20;99.90;;;;;;6261135;23;20013;-90
2021/09/03 06:23:58;;;;;;;0.57;0.17;;;12.30;99.90;;;;;;6236954;23;20013;-91
2021/09/03 06:26:25;;;;;;;0.13;0.13;;;12.40;99.90;;;;;;6236848;23;20315;-91
2021/09/03 06:28:52;;;;;;;0.00;0.00;;;12.50;99.90;;;;;;6237619;23;20031;-90
2021/09/03 06:31:26;;;;;;;0.00;0.00;;;12.60;99.90;;;;;;6240621;23;20000;-93
2021/09/03 06:33:53;;;;;;;0.10;0.10;;;12.70;99.90;;;;;;6237193;23;20066;-94
2021/09/03 06:36:20;;;;;;;0.13;0.10;;;12.50;99.90;;;;;;6211770;23;20016;-90
2021/09/03 06:39:03;;;;;;;0.00;0.00;;;12.70;99.90;;;;;;6210453;23;20048;-94
2021/09/03 06:42:06;;;;;;;0.08;0.08;;;12.90;99.90;;;;;;6179853;23;20041;-95
2021/09/03 06:44:39;;;;;;;0.05;0.05;;;13.00;99.90;;;;;;6150946;23;20018;-96
2021/09/03 06:47:07;;;;;;;0.00;0.00;;;13.10;99.90;;;;;;6215965;23;20040;-90
2021/09/03 06:49:34;;;;;;;0.03;0.03;;;13.20;99.90;;;;;;6234821;23;20016;-89
2021/09/03 06:52:05;;;;;;;0.00;0.00;;;13.30;99.90;;;;;;6237208;23;20052;-89
2021/09/03 06:54:34;;;;;;;0.05;0.05;;;13.40;99.90;;;;;;6237440;23;20023;-94
2021/09/03 06:57:01;;;;;;;0.00;0.00;;;13.50;99.90;;;;;;6211388;23;20013;-91
2021/09/03 06:59:39;;;;;;;0.10;0.10;;;13.60;99.90;;;;;;6236580;23;20066;-92
2021/09/03 07:02:15;;;;;;;0.10;0.10;;;13.50;99.90;;;;;;6211625;23;20012;-91
2021/09/03 07:08:45;;;;;;;0.08;0.08;;;13.90;99.90;;;;;;6233981;23;20048;-94
2021/09/03 07:11:28;;;;;;;0.00;0.00;;;14.00;99.90;;;;;;6231201;23;20500;-88
2021/09/03 07:13:54;;;;;;;0.08;0.08;;;14.10;99.90;;;;;;6203533;23;20068;-92
2021/09/03 07:16:25;;;;;;;0.00;0.00;;;14.20;99.90;;;;;;6159755;23;20103;-92
2021/09/03 07:18:52;;;;;;;0.10;0.10;;;14.30;99.90;;;;;;6206528;23;20045;-90
2021/09/03 07:21:20;;;;;;;0.30;0.30;;;14.40;99.90;;;;;;6203801;23;20056;-88
2021/09/03 07:23:50;;;;;;;0.00;0.00;;;14.50;99.90;;;;;;6178354;23;20021;-94
2021/09/03 07:26:17;;;;;;;0.55;0.15;;;14.60;99.90;;;;;;6178088;23;20319;-90
2021/09/03 07:28:44;;;;;;;0.15;0.15;;;14.60;99.90;;;;;;6202203;23;20020;-91
2021/09/03 07:31:11;;;;;;;0.22;0.15;;;14.70;99.90;;;;;;6202767;23;20096;-88
2021/09/03 07:33:37;;;;;;;0.00;0.00;;;14.80;99.90;;;;;;6177580;23;20009;-88
2021/09/03 07:36:04;;;;;;;0.00;0.00;;;14.90;99.90;;;;;;6177647;23;20068;-89
2021/09/03 07:38:31;;;;;;;0.88;0.17;;;15.00;99.90;;;;;;6187303;23;20016;-89
2021/09/03 07:40:58;;;;;;;0.10;0.05;;;15.10;99.90;;;;;;6232566;23;20016;-89
2021/09/03 07:43:25;;;;;;;0.00;0.00;;;15.20;99.90;;;;;;6233886;23;20393;-89
2021/09/03 07:45:52;;;;;;;0.25;0.10;;;15.30;99.90;;;;;;6207887;23;20048;-91
2021/09/03 07:48:18;;;;;;;0.05;0.05;;;15.40;99.90;;;;;;6233376;23;20013;-88
2021/09/03 07:50:45;;;;;;;0.13;0.10;;;15.40;99.90;;;;;;6232765;23;20015;-87
2021/09/03 07:53:13;;;;;;;0.30;0.22;;;15.60;99.90;;;;;;6233305;23;20015;-89
2021/09/03 07:55:39;;;;;;;0.00;0.00;;;15.60;99.90;;;;;;6208182;23;20070;-88
2021/09/03 07:58:07;;;;;;;0.40;0.22;;;15.70;99.90;;;;;;6232431;23;20381;-88
2021/09/03 08:00:35;;;;;;;0.55;0.40;;;15.60;99.90;;;;;;6232575;23;20337;-88
2021/09/03 08:03:03;;;;;;;1.20;0.30;;;15.90;99.90;;;;;;6235985;23;20099;-89
2021/09/03 08:05:30;;;;;;;0.70;0.32;;;15.90;99.90;;;;;;6235600;23;20019;-86
2021/09/03 08:07:57;;;;;;;0.30;0.17;;;16.00;99.90;;;;;;6233728;23;20043;-87
2021/09/03 08:10:26;;;;;;;0.20;0.10;;;16.00;99.90;;;;;;6233478;23;20012;-90
2021/09/03 08:12:53;;;;;;;0.52;0.25;;;16.00;99.90;;;;;;6203950;23;20017;-88
2021/09/03 08:15:19;;;;;;;0.20;0.17;;;16.10;99.90;;;;;;6179124;23;20020;-88
2021/09/03 08:17:46;;;;;;;0.35;0.10;;;16.10;99.90;;;;;;6180961;23;20020;-90
2021/09/03 08:20:14;;;;;;;0.55;0.35;;;16.20;99.90;;;;;;6180973;23;20152;-86
2021/09/03 08:22:42;;;;;;;1.40;0.32;;;16.20;99.90;;;;;;6155808;23;20017;-89
2021/09/03 08:25:09;;;;;;;0.35;0.20;;;16.20;99.90;;;;;;6181514;23;20012;-89
2021/09/03 08:27:36;;;;;;;1.10;0.50;;;16.30;99.90;;;;;;6183318;23;20020;-92
2021/09/03 08:30:04;;;;;;;2.88;0.77;;;16.30;99.90;;;;;;6181449;23;20091;-87
2021/09/03 08:32:31;;;;;;;0.47;0.25;;;16.30;99.90;;;;;;6181132;23;20024;-89
2021/09/03 08:34:58;;;;;;;1.38;0.60;;;16.40;99.90;;;;;;6180830;23;20009;-89
2021/09/03 08:37:25;;;;;;;0.70;0.38;;;16.40;99.90;;;;;;6180242;23;20088;-89
2021/09/03 08:39:54;;;;;;;0.85;0.30;;;16.50;99.90;;;;;;6180219;23;20013;-86
2021/09/03 08:42:21;;;;;;;1.17;0.55;;;16.50;99.90;;;;;;6155892;23;20021;-88
2021/09/03 08:44:51;;;;;;;0.95;0.35;;;16.60;99.90;;;;;;6181887;23;20013;-89
2021/09/03 08:47:21;;;;;;;1.25;0.43;;;16.60;99.90;;;;;;6183364;23;20017;-92
2021/09/03 08:49:52;;;;;;;0.47;0.32;;;16.70;99.90;;;;;;6181953;23;20037;-94
2021/09/03 08:52:23;;;;;;;0.40;0.20;;;16.60;99.90;;;;;;6183597;23;20013;-90
2021/09/03 08:54:50;;;;;;;1.20;0.43;;;16.60;99.90;;;;;;6181984;23;20028;-89
2021/09/03 08:57:30;;;;;;;0.25;0.15;;;16.70;99.90;;;;;;6182807;23;20017;-96
2021/09/03 09:00:42;;;;;;;0.40;0.28;;;16.80;99.90;;;;;;6181049;23;20052;-95
2021/09/03 09:03:18;;;;;;;0.20;0.20;;;16.70;99.90;;;;;;6185203;23;20017;-89
2021/09/03 18:31:00;;;;;;;0.43;0.10;;;15.90;99.90;;;;;;5486527;22;1413663;-90
2021/09/03 18:33:27;;;;;;;0.35;0.20;;;15.90;99.90;;;;;;6189555;23;20122;-89
2021/09/03 18:35:53;;;;;;;0.45;0.28;;;15.90;99.90;;;;;;6190123;23;20036;-90
2021/09/03 18:38:20;;;;;;;0.10;0.10;;;15.90;99.90;;;;;;6239345;23;20023;-90
2021/09/03 18:40:47;;;;;;;1.35;0.40;;;15.80;99.90;;;;;;6239510;23;20012;-89
2021/09/03 18:43:14;;;;;;;0.40;0.20;;;15.80;99.90;;;;;;6189986;23;20020;-90
2021/09/03 18:45:41;;;;;;;0.50;0.20;;;15.80;99.90;;;;;;6189774;23;20052;-91
2021/09/03 18:48:07;;;;;;;1.67;0.60;;;15.80;99.90;;;;;;6239300;23;20043;-91
2021/09/03 18:50:34;;;;;;;0.40;0.30;;;15.80;99.90;;;;;;6189520;23;20016;-90
2021/09/03 18:53:01;;;;;;;0.38;0.25;;;15.70;99.90;;;;;;6239321;23;20103;-90
2021/09/03 18:55:27;;;;;;;0.22;0.20;;;15.70;99.90;;;;;;6189470;23;20012;-91
2021/09/03 18:57:55;;;;;;;0.60;0.32;;;15.70;99.90;;;;;;6189956;23;20016;-91
2021/09/03 19:00:21;;;;;;;0.88;0.30;;;15.60;99.90;;;;;;6190500;23;20012;-91
2021/09/03 19:02:48;;;;;;;0.68;0.38;;;15.60;99.90;;;;;;6189869;23;20429;-91
2021/09/03 19:05:15;;;;;;;0.57;0.28;;;15.60;99.90;;;;;;6190051;23;20012;-90
2021/09/03 19:07:42;;;;;;;0.13;0.13;;;15.60;99.90;;;;;;6264485;23;20008;-90
2021/09/03 19:10:11;;;;;;;0.73;0.40;;;15.50;99.90;;;;;;6239553;23;20044;-91
2021/09/03 19:12:40;;;;;;;0.95;0.40;;;15.50;99.90;;;;;;6239244;23;20433;-90
2021/09/03 19:15:08;;;;;;;0.93;0.43;;;15.50;99.90;;;;;;6239786;23;20091;-91
2021/09/03 19:17:35;;;;;;;0.28;0.20;;;15.50;99.90;;;;;;6238775;23;20042;-90
2021/09/03 19:20:05;;;;;;;0.00;0.00;;;15.50;99.90;;;;;;6239198;23;20039;-91
2021/09/03 19:22:33;;;;;;;0.10;0.10;;;15.50;99.90;;;;;;6215133;23;20402;-90
2021/09/03 19:25:01;;;;;;;0.52;0.30;;;15.50;99.90;;;;;;6239067;23;20016;-91
2021/09/03 19:27:30;;;;;;;0.17;0.17;;;15.50;99.90;;;;;;6190251;23;20404;-90
2021/09/03 19:29:58;;;;;;;0.10;0.10;;;15.50;99.90;;;;;;6239777;23;20019;-90
2021/09/03 19:32:26;;;;;;;0.30;0.20;;;15.50;99.90;;;;;;6256797;23;20024;-90
2021/09/03 19:34:52;;;;;;;0.40;0.20;;;15.50;99.90;;;;;;6263990;23;20055;-90
2021/09/03 19:37:19;;;;;;;0.10;0.10;;;15.40;99.90;;;;;;6213938;23;20078;-90
2021/09/03 19:39:46;;;;;;;0.10;0.10;;;15.50;99.90;;;;;;6263468;23;20016;-91
2021/09/03 19:42:13;;;;;;;0.20;0.20;;;15.50;99.90;;;;;;6264106;23;20012;-90
2021/09/03 19:44:40;;;;;;;0.28;0.03;;;15.50;99.90;;;;;;6213703;23;20019;-89
2021/09/03 19:47:06;;;;;;;0.73;0.28;;;15.40;99.90;;;;;;6214997;23;20060;-91
2021/09/03 19:49:33;;;;;;;0.00;0.00;;;15.40;99.90;;;;;;6213790;23;20047;-91
2021/09/03 19:52:00;;;;;;;0.15;0.15;;;15.50;99.90;;;;;;6238018;23;20015;-92
2021/09/03 19:54:27;;;;;;;0.65;0.28;;;15.50;99.90;;;;;;6213461;23;20017;-91
2021/09/03 19:56:54;;;;;;;0.25;0.17;;;15.40;99.90;;;;;;6263903;23;20452;-92
2021/09/03 19:59:23;;;;;;;0.00;0.00;;;15.40;99.90;;;;;;6262229;23;20074;-91
2021/09/03 20:01:51;;;;;;;0.80;0.28;;;15.40;99.90;;;;;;6262387;23;20014;-92
2021/09/03 20:04:17;;;;;;;0.55;0.28;;;15.40;99.90;;;;;;6263643;22;20040;-92
2021/09/03 20:06:44;;;;;;;0.13;0.13;;;15.40;99.90;;;;;;6214016;23;20023;-91
2021/09/03 20:09:11;;;;;;;1.13;0.43;;;15.40;99.90;;;;;;6238860;23;20016;-91
2021/09/03 20:11:38;;;;;;;0.10;0.10;;;15.40;99.90;;;;;;6213591;23;20012;-91
2021/09/03 20:14:05;;;;;;;0.50;0.20;;;15.40;99.90;;;;;;6263368;23;20364;-92
2021/09/03 20:16:32;;;;;;;0.47;0.32;;;15.40;99.90;;;;;;6238643;23;20008;-91
2021/09/03 20:18:59;;;;;;;0.10;0.10;;;15.50;99.90;;;;;;6263401;23;20368;-91
2021/09/03 20:21:26;;;;;;;0.20;0.13;;;15.40;99.90;;;;;;6238147;23;20019;-91
2021/09/03 20:23:53;;;;;;;0.20;0.20;;;15.40;99.90;;;;;;6263074;23;20413;-91
2021/09/03 20:26:20;;;;;;;0.50;0.22;;;15.30;99.90;;;;;;6238428;23;20097;-91
2021/09/03 20:28:47;;;;;;;0.10;0.10;;;15.30;99.90;;;;;;6262701;23;20016;-91
2021/09/03 20:31:14;;;;;;;0.38;0.20;;;15.40;99.90;;;;;;6213450;23;20073;-91
2021/09/03 20:33:40;;;;;;;1.40;0.22;;;15.40;99.90;;;;;;6213072;23;20078;-91
2021/09/03 20:36:07;;;;;;;0.10;0.10;;;15.40;99.90;;;;;;6238400;23;20453;-91
2021/09/03 20:38:34;;;;;;;0.52;0.30;;;15.40;99.90;;;;;;6238040;23;20021;-91
2021/09/03 20:41:01;;;;;;;0.22;0.13;;;15.40;99.90;;;;;;6263283;23;20055;-91
2021/09/03 20:43:28;;;;;;;0.45;0.30;;;15.40;99.90;;;;;;6263710;23;20009;-92
2021/09/03 20:45:54;;;;;;;0.10;0.10;;;15.40;99.90;;;;;;6237809;23;20016;-91
2021/09/03 20:48:21;;;;;;;0.30;0.20;;;15.40;99.90;;;;;;6263158;23;20012;-91
2021/09/03 20:50:48;;;;;;;0.13;0.10;;;15.40;99.90;;;;;;6263067;23;20012;-91
2021/09/03 20:53:15;;;;;;;0.08;0.08;;;15.30;99.90;;;;;;6213927;23;20020;-91
2021/09/03 20:55:42;;;;;;;0.17;0.10;;;15.30;99.90;;;;;;6238788;23;20018;-92
2021/09/03 20:58:08;;;;;;;0.65;0.20;;;15.30;99.90;;;;;;6263553;23;20444;-91
2021/09/03 21:00:35;;;;;;;0.00;0.00;;;15.30;99.90;;;;;;6213236;23;20008;-91
2021/09/03 21:03:02;;;;;;;0.90;0.40;;;15.30;99.90;;;;;;6262685;23;20332;-91
2021/09/03 21:05:29;;;;;;;0.03;0.03;;;15.20;99.90;;;;;;6213530;23;20012;-91
2021/09/03 21:07:56;;;;;;;0.10;0.10;;;15.30;99.90;;;;;;6237808;23;20494;-91
2021/09/03 21:10:23;;;;;;;0.20;0.13;;;15.30;99.90;;;;;;6263364;22;20475;-91
2021/09/03 21:12:49;;;;;;;0.17;0.10;;;15.20;99.90;;;;;;6263005;22;20054;-91
2021/09/03 21:15:16;;;;;;;0.00;0.00;;;15.20;99.90;;;;;;6213499;23;20412;-91
2021/09/03 21:17:43;;;;;;;0.60;0.30;;;15.20;99.90;;;;;;6262681;23;20078;-91
2021/09/03 21:20:10;;;;;;;0.03;0.00;;;15.20;99.90;;;;;;6238107;23;20039;-91
2021/09/03 21:22:36;;;;;;;0.43;0.13;;;15.20;99.90;;;;;;6263182;23;20012;-91
2021/09/03 21:25:03;;;;;;;0.00;0.00;;;15.20;99.90;;;;;;6263018;22;20012;-91
2021/09/03 21:27:30;;;;;;;0.00;0.00;;;15.20;99.90;;;;;;6263151;23;20100;-91
2021/09/03 21:29:57;;;;;;;0.00;0.00;;;15.20;99.90;;;;;;6213232;23;20047;-91
2021/09/03 21:32:25;;;;;;;0.40;0.10;;;15.10;99.90;;;;;;6262591;23;20388;-91
2021/09/03 21:34:51;;;;;;;0.00;0.00;;;15.20;99.90;;;;;;6262641;23;20104;-92
2021/09/03 21:37:18;;;;;;;0.00;0.00;;;15.20;99.90;;;;;;6263017;23;20066;-92
2021/09/03 21:39:45;;;;;;;0.32;0.13;;;15.20;99.90;;;;;;6263555;23;20318;-91
2021/09/03 21:42:12;;;;;;;0.22;0.20;;;15.20;99.90;;;;;;6265044;23;20455;-90
2021/09/03 21:44:38;;;;;;;0.05;0.05;;;15.20;99.90;;;;;;6240245;23;20044;-91
2021/09/03 21:47:05;;;;;;;0.47;0.28;;;15.20;99.90;;;;;;6214978;23;20012;-91
2021/09/03 21:49:32;;;;;;;0.00;0.00;;;15.20;99.90;;;;;;6215295;23;20034;-91
2021/09/03 21:51:59;;;;;;;0.00;0.00;;;15.20;99.90;;;;;;6239753;23;20058;-91
2021/09/03 21:54:25;;;;;;;0.88;0.22;;;15.20;99.90;;;;;;6239943;23;20340;-91
2021/09/03 21:56:52;;;;;;;0.00;0.00;;;15.20;99.90;;;;;;6239844;23;20134;-91
2021/09/03 21:59:19;;;;;;;0.10;0.10;;;15.20;99.90;;;;;;6215187;23;20016;-91
2021/09/03 22:01:46;;;;;;;0.10;0.10;;;15.20;99.90;;;;;;6264612;23;20086;-91
2021/09/03 22:04:12;;;;;;;0.05;0.05;;;15.20;99.90;;;;;;6265276;23;20008;-92
2021/09/03 22:06:39;;;;;;;0.17;0.15;;;15.20;99.90;;;;;;6264672;23;20072;-92
2021/09/03 22:09:06;;;;;;;0.15;0.10;;;15.20;99.90;;;;;;6264634;23;20730;-93
2021/09/03 22:11:33;;;;;;;0.22;0.00;;;15.20;99.90;;;;;;6264920;23;20012;-91
2021/09/03 22:14:02;;;;;;;0.25;0.15;;;15.10;99.90;;;;;;6239617;23;20016;-92
2021/09/03 22:16:29;;;;;;;0.13;0.10;;;15.10;99.90;;;;;;6265327;23;20023;-92
2021/09/03 22:18:56;;;;;;;1.30;0.40;;;15.10;99.90;;;;;;6239489;23;20440;-91
2021/09/03 22:21:24;;;;;;;0.93;0.30;;;15.10;99.90;;;;;;6240189;23;20019;-92
2021/09/03 22:23:51;;;;;;;0.35;0.20;;;15.10;99.90;;;;;;6239835;23;20456;-92
2021/09/03 22:26:18;;;;;;;0.88;0.30;;;15.10;99.90;;;;;;6264763;23;20018;-91
2021/09/03 22:28:44;;;;;;;0.28;0.22;;;15.10;99.90;;;;;;6264977;23;20020;-92
2021/09/03 22:31:11;;;;;;;0.00;0.00;;;15.10;99.90;;;;;;6264249;23;20086;-91
2021/09/03 22:33:38;;;;;;;1.08;0.30;;;15.10;99.90;;;;;;6190335;23;20476;-92
2021/09/03 22:36:05;;;;;;;0.10;0.10;;;15.10;99.90;;;;;;6190547;23;20012;-92
2021/09/03 22:38:31;;;;;;;0.28;0.15;;;15.10;99.90;;;;;;6239429;23;20016;-92
2021/09/03 22:40:58;;;;;;;0.35;0.20;;;15.10;99.90;;;;;;6239190;23;20098;-91
2021/09/03 22:43:25;;;;;;;0.95;0.20;;;15.10;99.90;;;;;;6239480;23;20048;-92
2021/09/03 22:45:51;;;;;;;0.13;0.13;;;15.10;99.90;;;;;;6239220;23;20045;-91
2021/09/03 22:48:18;;;;;;;0.40;0.10;;;15.10;99.90;;;;;;6190313;23;20012;-91
2021/09/03 22:50:45;;;;;;;0.20;0.20;;;15.00;99.90;;;;;;6239277;23;20471;-91
2021/09/03 22:53:12;;;;;;;0.08;0.08;;;15.10;99.90;;;;;;6190085;23;20012;-92
2021/09/03 22:55:38;;;;;;;0.00;0.00;;;15.00;99.90;;;;;;6239983;23;20019;-92
2021/09/03 22:58:05;;;;;;;0.08;0.08;;;15.00;99.90;;;;;;6239101;23;20467;-92
2021/09/03 23:00:32;;;;;;;0.00;0.00;;;15.10;99.90;;;;;;6190286;23;20074;-91
2021/09/03 23:02:59;;;;;;;0.73;0.32;;;15.10;99.90;;;;;;6239333;23;20429;-92
2021/09/03 23:05:25;;;;;;;0.10;0.10;;;15.10;99.90;;;;;;6239178;23;20066;-91
2021/09/03 23:07:52;;;;;;;0.28;0.22;;;15.00;99.90;;;;;;6239443;23;20012;-92
2021/09/03 23:10:19;;;;;;;0.10;0.10;;;15.10;99.90;;;;;;6189752;23;20012;-92
2021/09/03 23:12:45;;;;;;;0.00;0.00;;;15.10;99.90;;;;;;6239908;23;20051;-92
2021/09/03 23:15:12;;;;;;;0.00;0.00;;;15.00;99.90;;;;;;6189650;23;20016;-92
2021/09/03 23:17:39;;;;;;;0.08;0.08;;;15.00;99.90;;;;;;6189822;23;20092;-91
2021/09/03 23:20:06;;;;;;;0.00;0.00;;;15.10;99.90;;;;;;6238657;23;20046;-91
2021/09/03 23:22:33;;;;;;;0.30;0.15;;;15.10;99.90;;;;;;6190010;23;20012;-91
2021/09/03 23:25:00;;;;;;;0.00;0.00;;;15.00;99.90;;;;;;6239029;23;20031;-92
2021/09/03 23:27:26;;;;;;;0.10;0.05;;;15.10;99.90;;;;;;6239349;23;20441;-92
2021/09/03 23:29:53;;;;;;;0.08;0.08;;;15.10;99.90;;;;;;6189786;23;20011;-92
2021/09/03 23:32:20;;;;;;;0.10;0.10;;;15.10;99.90;;;;;;6203128;23;20027;-92
2021/09/03 23:34:46;;;;;;;0.00;0.00;;;15.10;99.90;;;;;;6264270;22;20008;-92
2021/09/03 23:37:13;;;;;;;0.30;0.20;;;15.10;99.90;;;;;;6213873;23;20020;-92
2021/09/03 23:39:40;;;;;;;0.00;0.00;;;15.10;99.90;;;;;;6214215;23;20012;-91
2021/09/03 23:42:07;;;;;;;0.05;0.05;;;15.00;99.90;;;;;;6263928;23;20031;-92
2021/09/03 23:44:34;;;;;;;0.05;0.05;;;15.10;99.90;;;;;;6214024;23;20016;-91
2021/09/03 23:47:00;;;;;;;0.55;0.20;;;15.00;99.90;;;;;;6263899;22;20061;-91
2021/09/03 23:49:27;;;;;;;0.15;0.08;;;15.00;99.90;;;;;;6214089;23;20091;-91
2021/09/03 23:51:54;;;;;;;0.10;0.10;;;15.00;99.90;;;;;;6263939;22;20020;-91
2021/09/03 23:54:20;;;;;;;0.20;0.08;;;15.00;99.90;;;;;;6213922;23;20026;-91
2021/09/03 23:56:47;;;;;;;0.10;0.10;;;15.00;99.90;;;;;;6214138;23;20023;-91
2021/09/03 23:59:14;;;;;;;0.10;0.10;;;15.00;99.90;;;;;;6213328;23;20081;-91
